地図

経路データ

SID SEASON NUMBER BASIN SUBBASIN NAME ISO_TIME NATURE LAT LON WMO_WIND WMO_PRES WMO_AGENCY TRACK_TYPE DIST2LAND LANDFALL IFLAG USA_AGENCY USA_ATCF_ID USA_LAT USA_LON USA_RECORD USA_STATUS USA_WIND USA_PRES USA_SSHS USA_R34_NE USA_R34_SE USA_R34_SW USA_R34_NW USA_R50_NE USA_R50_SE USA_R50_SW USA_R50_NW USA_R64_NE USA_R64_SE USA_R64_SW USA_R64_NW USA_POCI USA_ROCI USA_RMW USA_EYE TOKYO_LAT TOKYO_LON TOKYO_GRADE TOKYO_WIND TOKYO_PRES TOKYO_R50_DIR TOKYO_R50_LONG TOKYO_R50_SHORT TOKYO_R30_DIR TOKYO_R30_LONG TOKYO_R30_SHORT TOKYO_LAND CMA_LAT CMA_LON CMA_CAT CMA_WIND CMA_PRES HKO_LAT HKO_LON HKO_CAT HKO_WIND HKO_PRES NEWDELHI_LAT NEWDELHI_LON NEWDELHI_GRADE NEWDELHI_WIND NEWDELHI_PRES NEWDELHI_CI NEWDELHI_DP NEWDELHI_POCI REUNION_LAT REUNION_LON REUNION_TYPE REUNION_WIND REUNION_PRES REUNION_TNUM REUNION_CI REUNION_RMW REUNION_R34_NE REUNION_R34_SE REUNION_R34_SW REUNION_R34_NW REUNION_R50_NE REUNION_R50_SE REUNION_R50_SW REUNION_R50_NW REUNION_R64_NE REUNION_R64_SE REUNION_R64_SW REUNION_R64_NW BOM_LAT BOM_LON BOM_TYPE BOM_WIND BOM_PRES BOM_TNUM BOM_CI BOM_RMW BOM_R34_NE BOM_R34_SE BOM_R34_SW BOM_R34_NW BOM_R50_NE BOM_R50_SE BOM_R50_SW BOM_R50_NW BOM_R64_NE BOM_R64_SE BOM_R64_SW BOM_R64_NW BOM_ROCI BOM_POCI BOM_EYE BOM_POS_METHOD BOM_PRES_METHOD NADI_LAT NADI_LON NADI_CAT NADI_WIND NADI_PRES WELLINGTON_LAT WELLINGTON_LON WELLINGTON_WIND WELLINGTON_PRES DS824_LAT DS824_LON DS824_STAGE DS824_WIND DS824_PRES TD9636_LAT TD9636_LON TD9636_STAGE TD9636_WIND TD9636_PRES TD9635_LAT TD9635_LON TD9635_WIND TD9635_PRES TD9635_ROCI NEUMANN_LAT NEUMANN_LON NEUMANN_CLASS NEUMANN_WIND NEUMANN_PRES MLC_LAT MLC_LON MLC_CLASS MLC_WIND MLC_PRES USA_GUST BOM_GUST BOM_GUST_PER REUNION_GUST REUNION_GUST_PER USA_SEAHGT USA_SEARAD_NE USA_SEARAD_SE USA_SEARAD_SW USA_SEARAD_NW STORM_SPEED STORM_DIR
1888288N34319 1888 55 NA NA NOT_NAMED 1888-10-13 12:00:00 ET 34.0000 -41.0000 main 1736 1736 _____________O -1 34.0000 -41.0000 EX 30 20 105
1888288N34319 1888 55 NA NA NOT_NAMED 1888-10-13 15:00:00 ET 33.7519 -39.8587 main 1810 1810 _____________P -1 33.7519 -39.8587 EX 30 20 105
1888288N34319 1888 55 NA NA NOT_NAMED 1888-10-13 18:00:00 ET 33.5000 -38.7000 main 1901 1901 _____________O -1 33.5000 -38.7000 EX 30 20 104
1888288N34319 1888 55 NA NA NOT_NAMED 1888-10-13 21:00:00 ET 33.2491 -37.5081 main 1994 1940 _____________P -1 33.2491 -37.5081 EX 32 21 104
1888288N34319 1888 55 NA NA NOT_NAMED 1888-10-14 00:00:00 ET 33.0000 -36.3000 main 1931 1826 _____________O -1 33.0000 -36.3000 EX 35 21 104
1888288N34319 1888 55 NA NA NOT_NAMED 1888-10-14 03:00:00 ET 32.7489 -35.1007 main 1815 1710 _____________P -1 32.7489 -35.1007 EX 35 21 104
1888288N34319 1888 55 NA NA NOT_NAMED 1888-10-14 06:00:00 ET 32.5000 -33.9000 main 1701 1574 _____________O -1 32.5000 -33.9000 EX 35 22 104
1888288N34319 1888 55 NA NA NOT_NAMED 1888-10-14 09:00:00 ET 32.2293 -32.5568 main 1574 1469 _____________P -1 32.2293 -32.5568 EX 37 21 104
1888288N34319 1888 55 NA NA NOT_NAMED 1888-10-14 12:00:00 SS 32.0000 -31.5000 main 1469 1429 _____________O -1 32.0000 -31.5000 SS 40 13 106
1888288N34319 1888 55 NA NA NOT_NAMED 1888-10-14 15:00:00 SS 31.8680 -31.1087 main 1429 1418 _____________P -1 31.8680 -31.1087 SS 40 5 115
1888288N34319 1888 55 NA NA NOT_NAMED 1888-10-14 18:00:00 SS 31.8000 -31.0000 main 1418 1397 _____________O -1 31.8000 -31.0000 SS 40 3 112
1888288N34319 1888 55 NA NA NOT_NAMED 1888-10-14 21:00:00 SS 31.7425 -30.7501 main 1397 1369 _____________P -1 31.7425 -30.7501 SS 40 4 103
1888288N34319 1888 55 NA NA NOT_NAMED 1888-10-15 00:00:00 SS 31.7000 -30.5000 main 1369 1351 _____________O -1 31.7000 -30.5000 SS 40 4 102
1888288N34319 1888 55 NA NA NOT_NAMED 1888-10-15 03:00:00 SS 31.6500 -30.2500 main 1348 1321 _____________P -1 31.6500 -30.2500 SS 40 4 103
1888288N34319 1888 55 NA NA NOT_NAMED 1888-10-15 06:00:00 SS 31.6000 -30.0000 main 1321 1293 _____________O -1 31.6000 -30.0000 SS 40 5 100
1888288N34319 1888 55 NA NA NOT_NAMED 1888-10-15 09:00:00 SS 31.5651 -29.7125 main 1293 1272 _____________P -1 31.5651 -29.7125 SS 40 4 103
1888288N34319 1888 55 NA NA NOT_NAMED 1888-10-15 12:00:00 SS 31.5000 -29.5000 main 1272 1270 _____________O -1 31.5000 -29.5000 SS 40 3 122
1888288N34319 1888 55 NA NA NOT_NAMED 1888-10-15 15:00:00 SS 31.4324 -29.4626 main 1270 1265 _____________P -1 31.4324 -29.4626 SS 40 3 0
1888288N34319 1888 55 NA NA NOT_NAMED 1888-10-15 18:00:00 SS 31.2000 -29.5000 main 1265 1255 _____________O -1 31.2000 -29.5000 SS 40 8 182
1888288N34319 1888 55 NA NA NOT_NAMED 1888-10-15 21:00:00 SS 30.6300 -29.5000 main 1253 1245 _____________P -1 30.6300 -29.5000 SS 40 12 179
1888288N34319 1888 55 NA NA NOT_NAMED 1888-10-16 00:00:00 SS 30.0000 -29.5000 main 1245 1242 _____________O -1 30.0000 -29.5000 SS 40 10 179
1888288N34319 1888 55 NA NA NOT_NAMED 1888-10-16 03:00:00 SS 29.6200 -29.5000 main 1242 1240 _____________P -1 29.6200 -29.5000 SS 40 7 0
1888288N34319 1888 55 NA NA NOT_NAMED 1888-10-16 06:00:00 SS 29.3000 -29.5000 main 1240 1239 _____________O -1 29.3000 -29.5000 SS 40 8 183
1888288N34319 1888 55 NA NA NOT_NAMED 1888-10-16 09:00:00 SS 28.7874 -29.5373 main 1239 1239 _____________P -1 28.7874 -29.5373 SS 42 8 179
1888288N34319 1888 55 NA NA NOT_NAMED 1888-10-16 12:00:00 SS 28.5000 -29.5000 main 1240 1229 _____________O -1 28.5000 -29.5000 SS 45 1 91
1888288N34319 1888 55 NA NA NOT_NAMED 1888-10-16 15:00:00 SS 28.7856 -29.4362 main 1229 1191 _____________P -1 28.7856 -29.4362 SS 45 9 29
1888288N34319 1888 55 NA NA NOT_NAMED 1888-10-16 18:00:00 SS 29.3000 -29.0000 main 1191 1087 _____________O -1 29.3000 -29.0000 SS 45 17 59
1888288N34319 1888 55 NA NA NOT_NAMED 1888-10-16 21:00:00 SS 29.6540 -27.8113 main 1079 968 _____________P -1 29.6540 -27.8113 SS 45 23 72
1888288N34319 1888 55 NA NA NOT_NAMED 1888-10-17 00:00:00 SS 30.0000 -26.5000 main 959 901 _____________O -1 30.0000 -26.5000 SS 45 19 67
1888288N34319 1888 55 NA NA NOT_NAMED 1888-10-17 03:00:00 SS 30.3980 -25.7515 main 901 857 _____________P -1 30.3980 -25.7515 SS 45 14 54
1888288N34319 1888 55 NA NA NOT_NAMED 1888-10-17 06:00:00 SS 30.8000 -25.2000 main 857 814 _____________O -1 30.8000 -25.2000 SS 45 12 55
1888288N34319 1888 55 NA NA NOT_NAMED 1888-10-17 09:00:00 SS 31.0970 -24.5980 main 814 779 _____________P -1 31.0970 -24.5980 SS 45 12 56
1888288N34319 1888 55 NA NA NOT_NAMED 1888-10-17 12:00:00 SS 31.5000 -24.0000 main 779 761 _____________O -1 31.5000 -24.0000 SS 45 15 44
1888288N34319 1888 55 NA NA NOT_NAMED 1888-10-17 15:00:00 SS 32.1899 -23.3505 main 767 758 _____________P -1 32.1899 -23.3505 SS 42 19 36
1888288N34319 1888 55 NA NA NOT_NAMED 1888-10-17 18:00:00 SS 33.0000 -22.7000 main 769 769 _____________O -1 33.0000 -22.7000 SS 40 19 34
1888288N34319 1888 55 NA NA NOT_NAMED 1888-10-17 21:00:00 SS 33.7496 -22.0913 main 785 785 _____________P -1 33.7496 -22.0913 SS 40 18 34
1888288N34319 1888 55 NA NA NOT_NAMED 1888-10-18 00:00:00 ET 34.5000 -21.5000 main 822 822 _____________O -1 34.5000 -21.5000 EX 40 18 33
1888288N34319 1888 55 NA NA NOT_NAMED 1888-10-18 03:00:00 ET 35.2496 -20.9062 main 859 859 _____________P -1 35.2496 -20.9062 EX 37 18 33
1888288N34319 1888 55 NA NA NOT_NAMED 1888-10-18 06:00:00 ET 36.0000 -20.3000 main 912 912 _____________O -1 36.0000 -20.3000 EX 35 18 34
1888288N34319 1888 55 NA NA NOT_NAMED 1888-10-18 09:00:00 ET 36.7508 -19.6628 main 920 840 _____________P -1 36.7508 -19.6628 EX 35 18 35
1888288N34319 1888 55 NA NA NOT_NAMED 1888-10-18 12:00:00 ET 37.5000 -19.0000 main 840 _____________O -1 37.5000 -19.0000 EX 35 18 35

IBTrACS Databaseについて

本データベースは、米国NOAAが公開する1842年以降の世界の熱帯低気圧のベストトラックデータアーカイブInternational Best Track Archive for Climate Stewardship (IBTrACS)を、ウェブで閲覧しやすい形式に変換したものです。

最終更新日:2021-12-03